ADDS METAR Data INFO
IDs: Format: Raw Decoded Include TAF

Data at: 0030 UTC 17 Dec 2017

KTVR 162353Z AUTO 13005KT 10SM CLR 08/00 A3017 RMK AO2 SLP225 T00830000 10144 20083 55003
KTVR 162253Z AUTO 09006KT 10SM FEW100 12/00 A3016 RMK AO2 SLP221 T01170000
KTVR 162153Z AUTO 13006KT 10SM CLR 14/M01 A3017 RMK AO2 SLP226 T01391006
KTVR 162053Z AUTO VRB05KT 10SM CLR 14/M01 A3018 RMK AO2 SLP228 T01441011 56024
KTVR 161953Z AUTO 14006KT 10SM SCT110 14/00 A3020 RMK AO2 SLP234 T01390000
KTVR 161853Z AUTO 13005KT 10SM CLR 13/00 A3022 RMK AO2 SLP240 T01280000
KTVR 161753Z AUTO 14007KT 10SM CLR 12/00 A3025 RMK AO2 SLP252 T01220000 10122 21050 58020
KTVR 161653Z AUTO 16005KT 10SM CLR 10/01 A3030 RMK AO2 SLP268 T01000006
KTVR 161553Z AUTO 13004KT 10SM CLR 07/00 A3030 RMK AO2 SLP269 T00720000
KTVR 161453Z AUTO 00000KT 10SM CLR 04/01 A3031 RMK AO2 SLP272 T00390011 51013
KTVR 161353Z AUTO 00000KT 9SM CLR M01/M01 A3030 RMK AO2 SLP269 T10111011
KTVR 161253Z AUTO 00000KT 6SM BR CLR M05/M06 A3029 RMK AO2 SLP263 T10501056
KTVR 161153Z AUTO 00000KT 7SM CLR M04/M04 A3027 RMK AO2 SLP259 T10391044 11022 21050 55000
KTVR 161053Z AUTO 00000KT 10SM CLR M03/M04 A3026 RMK AO2 SLP256 T10331039
KTVR 160953Z AUTO 00000KT 5SM BR CLR M04/M04 A3027 RMK AO2 SLP259 T10441044
KTVR 160853Z AUTO 00000KT 7SM CLR M04/M04 A3027 RMK AO2 SLP259 T10391044 56002
KTVR 160753Z AUTO 00000KT 10SM CLR M03/M04 A3028 RMK AO2 SLP260 T10331039
KTVR 160653Z AUTO 00000KT 10SM CLR M03/M04 A3028 RMK AO2 SLP260 T10281039
KTVR 160553Z AUTO 17003KT 10SM CLR M03/M04 A3028 RMK AO2 SLP262 T10331039 10033 21033 400891033 50000
KTVR 160453Z AUTO 00000KT 10SM CLR M02/M03 A3029 RMK AO2 SLP266 T10171033
KTVR 160353Z AUTO 00000KT 10SM CLR M02/M03 A3028 RMK AO2 SLP262 T10171028
KTVR 160253Z AUTO 00000KT 10SM CLR M02/M03 A3028 RMK AO2 SLP261 T10171028 51012
KTVR 160153Z AUTO 00000KT 10SM CLR 00/M03 A3027 RMK AO2 SLP257 T00001028
KTVR 160053Z AUTO 00000KT 10SM CLR 01/M03 A3026 RMK AO2 SLP256 T00111028
KTVR 152353Z AUTO 00000KT 10SM CLR 03/M03 A3025 RMK AO2 SLP250 T00281028 10089 20028 53002
KTVR 152253Z AUTO 00000KT 10SM CLR 07/M03 A3024 RMK AO2 SLP247 T00721028
KTVR 152153Z AUTO 00000KT 10SM CLR 08/M03 A3024 RMK AO2 SLP247 T00831033
KTVR 152053Z AUTO 00000KT 10SM CLR 08/M03 A3024 RMK AO2 SLP247 T00781033 56017
KTVR 151953Z AUTO 02005KT 10SM CLR 08/M04 A3025 RMK AO2 SLP251 T00831039
KTVR 151853Z AUTO 02005KT 10SM CLR 08/M03 A3026 RMK AO2 SLP254 T00781028
KTVR 151753Z AUTO 03007KT 10SM CLR 08/M03 A3029 RMK AO2 SLP264 T00781028 10078 20022 50009
KTVR 151653Z AUTO 05007KT 10SM CLR 07/M02 A3031 RMK AO2 SLP272 T00671017
KTVR 151553Z AUTO 03008KT 10SM CLR 06/M01 A3031 RMK AO2 SLP271 T00611011
KTVR 151453Z AUTO 02008KT 10SM CLR 05/M01 A3026 RMK AO2 SLP255 T00501006 53020
KTVR 151353Z AUTO 00000KT 10SM CLR 03/00 A3024 RMK AO2 SLP248 T00330000
KTVR 151253Z AUTO 30003KT 10SM CLR 02/00 A3022 RMK AO2 SLP239 T00220000